sensor_id;sensor_type;location;lat;lon;timestamp;P1;durP1;ratioP1;P2;durP2;ratioP2
27839;SDS011;15207;42.182;24.308;2022-11-30T00:01:20;69.60;;;36.40;;
27839;SDS011;15207;42.182;24.308;2022-11-30T00:03:52;60.75;;;34.25;;
27839;SDS011;15207;42.182;24.308;2022-11-30T00:06:19;66.65;;;35.85;;
27839;SDS011;15207;42.182;24.308;2022-11-30T00:08:47;59.15;;;34.30;;
27839;SDS011;15207;42.182;24.308;2022-11-30T00:11:15;65.20;;;38.00;;
27839;SDS011;15207;42.182;24.308;2022-11-30T00:13:45;73.20;;;37.50;;
27839;SDS011;15207;42.182;24.308;2022-11-30T00:16:12;66.10;;;38.30;;
27839;SDS011;15207;42.182;24.308;2022-11-30T00:18:37;67.90;;;37.80;;
27839;SDS011;15207;42.182;24.308;2022-11-30T00:21:04;67.60;;;38.90;;
27839;SDS011;15207;42.182;24.308;2022-11-30T00:23:35;74.40;;;41.45;;
27839;SDS011;15207;42.182;24.308;2022-11-30T00:26:05;68.05;;;40.88;;
27839;SDS011;15207;42.182;24.308;2022-11-30T00:28:33;71.00;;;39.20;;
27839;SDS011;15207;42.182;24.308;2022-11-30T00:31:00;71.70;;;41.15;;
27839;SDS011;15207;42.182;24.308;2022-11-30T00:33:27;72.25;;;41.20;;
27839;SDS011;15207;42.182;24.308;2022-11-30T00:36:04;75.50;;;42.90;;
27839;SDS011;15207;42.182;24.308;2022-11-30T00:38:32;75.85;;;42.70;;
27839;SDS011;15207;42.182;24.308;2022-11-30T00:40:59;78.70;;;44.10;;
27839;SDS011;15207;42.182;24.308;2022-11-30T00:43:24;65.50;;;37.50;;
27839;SDS011;15207;42.182;24.308;2022-11-30T00:48:15;70.60;;;38.03;;
27839;SDS011;15207;42.182;24.308;2022-11-30T00:50:41;63.30;;;35.70;;
27839;SDS011;15207;42.182;24.308;2022-11-30T00:53:06;67.30;;;37.80;;
27839;SDS011;15207;42.182;24.308;2022-11-30T00:55:32;62.77;;;36.73;;
27839;SDS011;15207;42.182;24.308;2022-11-30T00:57:58;64.70;;;37.50;;
27839;SDS011;15207;42.182;24.308;2022-11-30T01:00:24;72.80;;;40.10;;
27839;SDS011;15207;42.182;24.308;2022-11-30T01:02:54;71.20;;;39.80;;
27839;SDS011;15207;42.182;24.308;2022-11-30T01:05:21;72.50;;;40.10;;
27839;SDS011;15207;42.182;24.308;2022-11-30T01:07:46;60.50;;;35.30;;
27839;SDS011;15207;42.182;24.308;2022-11-30T01:10:12;60.35;;;34.20;;
27839;SDS011;15207;42.182;24.308;2022-11-30T01:12:38;58.40;;;31.60;;
27839;SDS011;15207;42.182;24.308;2022-11-30T01:15:03;55.40;;;31.20;;
27839;SDS011;15207;42.182;24.308;2022-11-30T01:17:29;59.45;;;32.25;;
27839;SDS011;15207;42.182;24.308;2022-11-30T01:19:55;57.38;;;31.05;;
27839;SDS011;15207;42.182;24.308;2022-11-30T01:22:20;65.30;;;33.90;;
27839;SDS011;15207;42.182;24.308;2022-11-30T01:24:46;55.80;;;31.40;;
27839;SDS011;15207;42.182;24.308;2022-11-30T01:27:11;56.40;;;30.40;;
27839;SDS011;15207;42.182;24.308;2022-11-30T01:29:37;60.55;;;33.00;;
27839;SDS011;15207;42.182;24.308;2022-11-30T01:32:03;56.05;;;31.45;;
27839;SDS011;15207;42.182;24.308;2022-11-30T01:34:29;62.20;;;32.60;;
27839;SDS011;15207;42.182;24.308;2022-11-30T01:36:54;62.30;;;33.70;;
27839;SDS011;15207;42.182;24.308;2022-11-30T01:39:20;59.80;;;32.80;;
27839;SDS011;15207;42.182;24.308;2022-11-30T01:41:45;61.90;;;32.60;;
27839;SDS011;15207;42.182;24.308;2022-11-30T01:49:41;55.35;;;29.60;;
27839;SDS011;15207;42.182;24.308;2022-11-30T01:54:49;45.80;;;26.40;;
27839;SDS011;15207;42.182;24.308;2022-11-30T01:57:21;51.25;;;28.50;;
27839;SDS011;15207;42.182;24.308;2022-11-30T01:59:52;56.05;;;30.45;;
27839;SDS011;15207;42.182;24.308;2022-11-30T02:02:24;52.10;;;29.15;;
27839;SDS011;15207;42.182;24.308;2022-11-30T02:04:56;54.88;;;29.05;;
27839;SDS011;15207;42.182;24.308;2022-11-30T02:07:22;47.80;;;26.10;;
27839;SDS011;15207;42.182;24.308;2022-11-30T02:09:47;45.05;;;26.05;;
27839;SDS011;15207;42.182;24.308;2022-11-30T02:12:22;47.47;;;25.30;;
27839;SDS011;15207;42.182;24.308;2022-11-30T02:14:57;43.15;;;23.40;;
27839;SDS011;15207;42.182;24.308;2022-11-30T02:17:42;40.35;;;22.70;;
27839;SDS011;15207;42.182;24.308;2022-11-30T02:31:13;41.70;;;23.42;;
27839;SDS011;15207;42.182;24.308;2022-11-30T02:33:43;45.70;;;24.67;;
27839;SDS011;15207;42.182;24.308;2022-11-30T02:36:10;47.38;;;26.30;;
27839;SDS011;15207;42.182;24.308;2022-11-30T02:38:36;49.50;;;25.45;;
27839;SDS011;15207;42.182;24.308;2022-11-30T02:41:02;52.65;;;27.05;;
27839;SDS011;15207;42.182;24.308;2022-11-30T02:43:28;50.17;;;26.63;;
27839;SDS011;15207;42.182;24.308;2022-11-30T02:48:44;50.63;;;27.25;;
27839;SDS011;15207;42.182;24.308;2022-11-30T02:51:19;49.42;;;27.45;;
27839;SDS011;15207;42.182;24.308;2022-11-30T02:53:48;52.60;;;27.55;;
27839;SDS011;15207;42.182;24.308;2022-11-30T02:56:13;51.80;;;28.77;;
27839;SDS011;15207;42.182;24.308;2022-11-30T02:58:39;51.80;;;28.30;;
27839;SDS011;15207;42.182;24.308;2022-11-30T03:01:05;53.65;;;28.95;;
27839;SDS011;15207;42.182;24.308;2022-11-30T03:03:31;54.30;;;29.80;;
27839;SDS011;15207;42.182;24.308;2022-11-30T03:05:57;59.30;;;32.20;;
27839;SDS011;15207;42.182;24.308;2022-11-30T03:08:22;60.45;;;32.15;;
27839;SDS011;15207;42.182;24.308;2022-11-30T03:10:48;61.40;;;32.85;;
27839;SDS011;15207;42.182;24.308;2022-11-30T03:13:13;59.75;;;33.05;;
27839;SDS011;15207;42.182;24.308;2022-11-30T03:15:39;66.55;;;34.00;;
27839;SDS011;15207;42.182;24.308;2022-11-30T03:18:05;66.37;;;34.07;;
27839;SDS011;15207;42.182;24.308;2022-11-30T03:20:30;73.70;;;37.15;;
27839;SDS011;15207;42.182;24.308;2022-11-30T03:22:59;66.10;;;35.40;;
27839;SDS011;15207;42.182;24.308;2022-11-30T03:25:26;59.95;;;33.30;;
27839;SDS011;15207;42.182;24.308;2022-11-30T03:27:53;58.40;;;33.65;;
27839;SDS011;15207;42.182;24.308;2022-11-30T03:30:19;54.30;;;32.30;;
27839;SDS011;15207;42.182;24.308;2022-11-30T03:32:45;60.90;;;33.90;;
27839;SDS011;15207;42.182;24.308;2022-11-30T03:35:10;64.55;;;34.90;;
27839;SDS011;15207;42.182;24.308;2022-11-30T03:37:36;62.43;;;35.40;;
27839;SDS011;15207;42.182;24.308;2022-11-30T03:40:02;63.30;;;35.35;;
27839;SDS011;15207;42.182;24.308;2022-11-30T03:42:28;68.05;;;36.30;;
27839;SDS011;15207;42.182;24.308;2022-11-30T03:44:54;65.20;;;35.30;;
27839;SDS011;15207;42.182;24.308;2022-11-30T03:47:19;62.65;;;34.88;;
27839;SDS011;15207;42.182;24.308;2022-11-30T03:49:45;73.13;;;36.80;;
27839;SDS011;15207;42.182;24.308;2022-11-30T03:52:11;67.30;;;35.60;;
27839;SDS011;15207;42.182;24.308;2022-11-30T03:54:36;66.20;;;35.30;;
27839;SDS011;15207;42.182;24.308;2022-11-30T03:57:02;68.70;;;36.80;;
27839;SDS011;15207;42.182;24.308;2022-11-30T03:59:28;72.95;;;38.65;;
27839;SDS011;15207;42.182;24.308;2022-11-30T04:01:53;73.70;;;37.90;;
27839;SDS011;15207;42.182;24.308;2022-11-30T04:04:19;71.15;;;37.55;;
27839;SDS011;15207;42.182;24.308;2022-11-30T04:06:44;67.82;;;35.70;;
27839;SDS011;15207;42.182;24.308;2022-11-30T04:09:10;65.35;;;35.25;;
27839;SDS011;15207;42.182;24.308;2022-11-30T04:11:36;61.30;;;33.90;;
27839;SDS011;15207;42.182;24.308;2022-11-30T04:14:01;71.60;;;35.75;;
27839;SDS011;15207;42.182;24.308;2022-11-30T04:16:27;64.75;;;32.85;;
27839;SDS011;15207;42.182;24.308;2022-11-30T04:18:52;69.70;;;36.65;;
27839;SDS011;15207;42.182;24.308;2022-11-30T04:21:18;73.75;;;36.95;;
27839;SDS011;15207;42.182;24.308;2022-11-30T04:23:43;74.55;;;38.85;;
27839;SDS011;15207;42.182;24.308;2022-11-30T04:26:13;78.77;;;38.37;;
27839;SDS011;15207;42.182;24.308;2022-11-30T04:28:40;71.50;;;37.60;;
27839;SDS011;15207;42.182;24.308;2022-11-30T04:31:06;68.88;;;36.80;;
27839;SDS011;15207;42.182;24.308;2022-11-30T04:33:32;70.37;;;36.77;;
27839;SDS011;15207;42.182;24.308;2022-11-30T04:35:59;66.80;;;34.65;;
27839;SDS011;15207;42.182;24.308;2022-11-30T04:38:26;63.55;;;33.30;;
27839;SDS011;15207;42.182;24.308;2022-11-30T04:40:52;59.23;;;32.13;;
27839;SDS011;15207;42.182;24.308;2022-11-30T04:43:18;60.45;;;32.88;;
27839;SDS011;15207;42.182;24.308;2022-11-30T04:45:45;57.85;;;31.33;;
27839;SDS011;15207;42.182;24.308;2022-11-30T04:48:13;54.42;;;29.08;;
27839;SDS011;15207;42.182;24.308;2022-11-30T04:50:40;49.85;;;27.40;;
27839;SDS011;15207;42.182;24.308;2022-11-30T04:53:06;52.60;;;29.00;;
27839;SDS011;15207;42.182;24.308;2022-11-30T04:55:32;48.90;;;26.60;;
27839;SDS011;15207;42.182;24.308;2022-11-30T04:57:57;46.78;;;27.15;;
27839;SDS011;15207;42.182;24.308;2022-11-30T05:00:23;50.40;;;28.45;;
27839;SDS011;15207;42.182;24.308;2022-11-30T05:02:49;50.53;;;28.38;;
27839;SDS011;15207;42.182;24.308;2022-11-30T05:05:15;59.55;;;31.30;;
27839;SDS011;15207;42.182;24.308;2022-11-30T05:07:41;51.65;;;28.65;;
27839;SDS011;15207;42.182;24.308;2022-11-30T05:10:08;58.67;;;29.67;;
27839;SDS011;15207;42.182;24.308;2022-11-30T05:12:34;57.00;;;30.05;;
27839;SDS011;15207;42.182;24.308;2022-11-30T05:15:00;52.97;;;29.38;;
27839;SDS011;15207;42.182;24.308;2022-11-30T05:17:25;59.80;;;30.85;;
27839;SDS011;15207;42.182;24.308;2022-11-30T05:19:51;59.90;;;31.05;;
27839;SDS011;15207;42.182;24.308;2022-11-30T05:22:17;56.72;;;30.15;;
27839;SDS011;15207;42.182;24.308;2022-11-30T05:24:42;61.05;;;31.10;;
27839;SDS011;15207;42.182;24.308;2022-11-30T05:27:08;58.42;;;31.20;;
27839;SDS011;15207;42.182;24.308;2022-11-30T05:29:33;67.40;;;33.88;;
27839;SDS011;15207;42.182;24.308;2022-11-30T05:32:00;62.70;;;31.92;;
27839;SDS011;15207;42.182;24.308;2022-11-30T05:34:26;66.10;;;33.30;;
27839;SDS011;15207;42.182;24.308;2022-11-30T05:36:52;62.15;;;32.60;;
27839;SDS011;15207;42.182;24.308;2022-11-30T05:39:18;61.57;;;32.13;;
27839;SDS011;15207;42.182;24.308;2022-11-30T05:41:44;61.03;;;32.35;;
27839;SDS011;15207;42.182;24.308;2022-11-30T05:44:10;55.43;;;30.63;;
27839;SDS011;15207;42.182;24.308;2022-11-30T05:46:37;57.50;;;30.60;;
27839;SDS011;15207;42.182;24.308;2022-11-30T05:49:02;57.30;;;30.80;;
27839;SDS011;15207;42.182;24.308;2022-11-30T05:51:28;51.30;;;28.10;;
27839;SDS011;15207;42.182;24.308;2022-11-30T05:53:54;48.88;;;27.15;;
27839;SDS011;15207;42.182;24.308;2022-11-30T05:56:20;52.83;;;29.57;;
27839;SDS011;15207;42.182;24.308;2022-11-30T05:58:46;56.50;;;31.15;;
27839;SDS011;15207;42.182;24.308;2022-11-30T06:01:23;62.28;;;34.17;;
27839;SDS011;15207;42.182;24.308;2022-11-30T06:03:50;72.28;;;38.50;;
27839;SDS011;15207;42.182;24.308;2022-11-30T06:06:16;79.20;;;39.38;;
27839;SDS011;15207;42.182;24.308;2022-11-30T06:08:43;72.20;;;38.25;;
27839;SDS011;15207;42.182;24.308;2022-11-30T06:11:09;75.83;;;39.23;;
27839;SDS011;15207;42.182;24.308;2022-11-30T06:13:35;68.40;;;35.30;;
27839;SDS011;15207;42.182;24.308;2022-11-30T06:16:02;64.40;;;34.65;;
27839;SDS011;15207;42.182;24.308;2022-11-30T06:18:28;63.90;;;34.10;;
27839;SDS011;15207;42.182;24.308;2022-11-30T06:21:01;58.35;;;32.25;;
27839;SDS011;15207;42.182;24.308;2022-11-30T06:23:29;70.10;;;37.35;;
27839;SDS011;15207;42.182;24.308;2022-11-30T06:25:55;72.37;;;37.37;;
27839;SDS011;15207;42.182;24.308;2022-11-30T06:28:21;75.45;;;39.45;;
27839;SDS011;15207;42.182;24.308;2022-11-30T06:30:47;90.85;;;47.70;;
27839;SDS011;15207;42.182;24.308;2022-11-30T06:33:13;88.23;;;47.37;;
27839;SDS011;15207;42.182;24.308;2022-11-30T06:35:45;77.10;;;42.40;;
27839;SDS011;15207;42.182;24.308;2022-11-30T06:38:12;75.90;;;40.80;;
27839;SDS011;15207;42.182;24.308;2022-11-30T06:40:39;64.70;;;34.35;;
27839;SDS011;15207;42.182;24.308;2022-11-30T06:43:05;56.50;;;31.97;;
27839;SDS011;15207;42.182;24.308;2022-11-30T06:45:31;61.80;;;30.40;;
27839;SDS011;15207;42.182;24.308;2022-11-30T06:47:58;61.40;;;34.25;;
27839;SDS011;15207;42.182;24.308;2022-11-30T06:52:51;53.50;;;29.20;;
27839;SDS011;15207;42.182;24.308;2022-11-30T06:55:19;57.55;;;30.50;;
27839;SDS011;15207;42.182;24.308;2022-11-30T06:57:45;51.45;;;28.55;;
27839;SDS011;15207;42.182;24.308;2022-11-30T07:00:11;51.50;;;29.00;;
27839;SDS011;15207;42.182;24.308;2022-11-30T07:02:38;52.50;;;27.70;;
27839;SDS011;15207;42.182;24.308;2022-11-30T07:05:04;48.30;;;26.95;;
27839;SDS011;15207;42.182;24.308;2022-11-30T07:07:30;43.95;;;26.80;;
27839;SDS011;15207;42.182;24.308;2022-11-30T07:09:56;50.30;;;28.00;;
27839;SDS011;15207;42.182;24.308;2022-11-30T07:12:22;52.05;;;29.15;;
27839;SDS011;15207;42.182;24.308;2022-11-30T07:14:48;51.90;;;28.70;;
27839;SDS011;15207;42.182;24.308;2022-11-30T07:17:21;48.75;;;28.65;;
27839;SDS011;15207;42.182;24.308;2022-11-30T07:19:47;50.05;;;29.00;;
27839;SDS011;15207;42.182;24.308;2022-11-30T07:22:13;52.55;;;29.50;;
27839;SDS011;15207;42.182;24.308;2022-11-30T07:24:38;54.65;;;28.95;;
27839;SDS011;15207;42.182;24.308;2022-11-30T07:29:50;41.45;;;24.40;;
27839;SDS011;15207;42.182;24.308;2022-11-30T07:32:16;35.90;;;20.75;;
27839;SDS011;15207;42.182;24.308;2022-11-30T07:34:43;24.55;;;16.05;;
27839;SDS011;15207;42.182;24.308;2022-11-30T07:37:10;27.23;;;17.47;;
27839;SDS011;15207;42.182;24.308;2022-11-30T07:39:36;26.75;;;15.90;;
27839;SDS011;15207;42.182;24.308;2022-11-30T07:42:02;22.40;;;14.60;;
27839;SDS011;15207;42.182;24.308;2022-11-30T07:44:30;21.20;;;12.50;;
27839;SDS011;15207;42.182;24.308;2022-11-30T07:46:58;14.30;;;11.30;;
27839;SDS011;15207;42.182;24.308;2022-11-30T07:49:25;16.80;;;10.70;;
27839;SDS011;15207;42.182;24.308;2022-11-30T07:51:51;16.10;;;9.75;;
27839;SDS011;15207;42.182;24.308;2022-11-30T07:54:16;15.17;;;9.30;;
27839;SDS011;15207;42.182;24.308;2022-11-30T07:56:42;15.27;;;9.00;;
27839;SDS011;15207;42.182;24.308;2022-11-30T07:59:08;15.10;;;9.40;;
27839;SDS011;15207;42.182;24.308;2022-11-30T08:01:34;16.10;;;9.40;;
27839;SDS011;15207;42.182;24.308;2022-11-30T08:04:00;14.05;;;9.35;;
27839;SDS011;15207;42.182;24.308;2022-11-30T08:06:29;13.80;;;8.80;;
27839;SDS011;15207;42.182;24.308;2022-11-30T08:08:57;13.25;;;8.40;;
27839;SDS011;15207;42.182;24.308;2022-11-30T08:11:26;12.20;;;8.25;;
27839;SDS011;15207;42.182;24.308;2022-11-30T08:13:53;16.00;;;8.50;;
27839;SDS011;15207;42.182;24.308;2022-11-30T08:16:21;12.70;;;8.60;;
27839;SDS011;15207;42.182;24.308;2022-11-30T08:18:49;12.40;;;7.80;;
27839;SDS011;15207;42.182;24.308;2022-11-30T08:23:44;16.00;;;7.75;;
27839;SDS011;15207;42.182;24.308;2022-11-30T08:26:16;17.20;;;8.00;;
27839;SDS011;15207;42.182;24.308;2022-11-30T08:28:44;11.10;;;7.00;;
27839;SDS011;15207;42.182;24.308;2022-11-30T08:31:16;13.80;;;8.05;;
27839;SDS011;15207;42.182;24.308;2022-11-30T08:36:11;14.63;;;7.88;;
27839;SDS011;15207;42.182;24.308;2022-11-30T08:38:38;10.25;;;7.00;;
27839;SDS011;15207;42.182;24.308;2022-11-30T08:41:06;12.65;;;7.00;;
27839;SDS011;15207;42.182;24.308;2022-11-30T08:43:32;12.80;;;6.75;;
27839;SDS011;15207;42.182;24.308;2022-11-30T08:46:01;14.40;;;7.40;;
27839;SDS011;15207;42.182;24.308;2022-11-30T08:48:29;10.10;;;7.10;;
27839;SDS011;15207;42.182;24.308;2022-11-30T08:55:58;11.05;;;6.40;;
27839;SDS011;15207;42.182;24.308;2022-11-30T08:58:26;13.30;;;6.30;;
27839;SDS011;15207;42.182;24.308;2022-11-30T09:03:30;10.40;;;6.30;;
27839;SDS011;15207;42.182;24.308;2022-11-30T09:08:27;9.30;;;6.40;;
27839;SDS011;15207;42.182;24.308;2022-11-30T09:10:53;13.60;;;7.30;;
27839;SDS011;15207;42.182;24.308;2022-11-30T09:13:18;9.13;;;6.18;;
27839;SDS011;15207;42.182;24.308;2022-11-30T09:15:52;12.00;;;5.80;;
27839;SDS011;15207;42.182;24.308;2022-11-30T09:18:20;9.55;;;6.30;;
27839;SDS011;15207;42.182;24.308;2022-11-30T09:20:47;10.10;;;5.60;;
27839;SDS011;15207;42.182;24.308;2022-11-30T09:23:14;8.60;;;5.25;;
27839;SDS011;15207;42.182;24.308;2022-11-30T09:28:07;14.75;;;5.95;;
27839;SDS011;15207;42.182;24.308;2022-11-30T09:30:35;14.20;;;5.70;;
27839;SDS011;15207;42.182;24.308;2022-11-30T09:33:00;13.10;;;6.40;;
27839;SDS011;15207;42.182;24.308;2022-11-30T09:35:26;12.90;;;7.40;;
27839;SDS011;15207;42.182;24.308;2022-11-30T09:37:52;14.90;;;7.30;;
27839;SDS011;15207;42.182;24.308;2022-11-30T09:40:18;12.33;;;7.37;;
27839;SDS011;15207;42.182;24.308;2022-11-30T09:45:24;12.90;;;6.10;;
27839;SDS011;15207;42.182;24.308;2022-11-30T09:50:40;10.70;;;4.95;;
27839;SDS011;15207;42.182;24.308;2022-11-30T09:55:44;10.67;;;5.47;;
27839;SDS011;15207;42.182;24.308;2022-11-30T09:58:12;10.85;;;5.30;;
27839;SDS011;15207;42.182;24.308;2022-11-30T10:01:01;11.93;;;5.97;;
27839;SDS011;15207;42.182;24.308;2022-11-30T10:06:07;15.38;;;6.60;;
27839;SDS011;15207;42.182;24.308;2022-11-30T10:09:01;10.40;;;6.20;;
27839;SDS011;15207;42.182;24.308;2022-11-30T10:27:53;7.00;;;5.30;;
27839;SDS011;15207;42.182;24.308;2022-11-30T10:30:25;8.75;;;5.90;;
27839;SDS011;15207;42.182;24.308;2022-11-30T10:32:57;10.02;;;5.68;;
27839;SDS011;15207;42.182;24.308;2022-11-30T10:35:39;9.77;;;5.07;;
27839;SDS011;15207;42.182;24.308;2022-11-30T10:38:12;12.27;;;5.17;;
27839;SDS011;15207;42.182;24.308;2022-11-30T10:43:25;7.85;;;4.50;;
27839;SDS011;15207;42.182;24.308;2022-11-30T10:45:57;10.57;;;4.55;;
27839;SDS011;15207;42.182;24.308;2022-11-30T10:48:26;10.63;;;5.70;;
27839;SDS011;15207;42.182;24.308;2022-11-30T10:50:58;12.40;;;5.80;;
27839;SDS011;15207;42.182;24.308;2022-11-30T10:53:26;8.77;;;5.43;;
27839;SDS011;15207;42.182;24.308;2022-11-30T10:55:57;10.33;;;6.10;;
27839;SDS011;15207;42.182;24.308;2022-11-30T10:58:35;9.35;;;5.75;;
27839;SDS011;15207;42.182;24.308;2022-11-30T11:03:30;15.80;;;7.85;;
27839;SDS011;15207;42.182;24.308;2022-11-30T11:08:47;15.68;;;8.02;;
27839;SDS011;15207;42.182;24.308;2022-11-30T11:11:26;13.50;;;7.68;;
27839;SDS011;15207;42.182;24.308;2022-11-30T11:14:08;11.83;;;7.73;;
27839;SDS011;15207;42.182;24.308;2022-11-30T11:16:53;16.80;;;8.45;;
27839;SDS011;15207;42.182;24.308;2022-11-30T11:19:25;18.05;;;9.30;;
27839;SDS011;15207;42.182;24.308;2022-11-30T11:21:56;14.50;;;9.40;;
27839;SDS011;15207;42.182;24.308;2022-11-30T11:24:24;21.80;;;9.60;;
27839;SDS011;15207;42.182;24.308;2022-11-30T11:26:52;18.10;;;10.53;;
27839;SDS011;15207;42.182;24.308;2022-11-30T11:29:24;21.90;;;11.35;;
27839;SDS011;15207;42.182;24.308;2022-11-30T11:32:04;19.75;;;10.52;;
27839;SDS011;15207;42.182;24.308;2022-11-30T11:34:42;24.63;;;12.32;;
27839;SDS011;15207;42.182;24.308;2022-11-30T11:37:19;18.15;;;10.55;;
27839;SDS011;15207;42.182;24.308;2022-11-30T11:42:25;21.30;;;12.70;;
27839;SDS011;15207;42.182;24.308;2022-11-30T11:44:56;18.65;;;12.07;;
27839;SDS011;15207;42.182;24.308;2022-11-30T11:47:32;16.25;;;10.23;;
27839;SDS011;15207;42.182;24.308;2022-11-30T11:55:48;16.63;;;10.88;;
27839;SDS011;15207;42.182;24.308;2022-11-30T11:58:27;16.40;;;10.40;;
27839;SDS011;15207;42.182;24.308;2022-11-30T12:01:14;15.07;;;9.40;;
27839;SDS011;15207;42.182;24.308;2022-11-30T12:06:37;16.80;;;10.57;;
27839;SDS011;15207;42.182;24.308;2022-11-30T12:09:10;12.10;;;8.13;;
27839;SDS011;15207;42.182;24.308;2022-11-30T12:11:43;16.88;;;9.43;;
27839;SDS011;15207;42.182;24.308;2022-11-30T12:14:12;16.60;;;9.80;;
27839;SDS011;15207;42.182;24.308;2022-11-30T12:30:54;18.30;;;8.50;;
27839;SDS011;15207;42.182;24.308;2022-11-30T12:33:46;14.87;;;7.97;;
27839;SDS011;15207;42.182;24.308;2022-11-30T12:44:24;15.67;;;9.83;;
27839;SDS011;15207;42.182;24.308;2022-11-30T12:55:25;16.55;;;10.70;;
27839;SDS011;15207;42.182;24.308;2022-11-30T13:00:41;18.88;;;11.27;;
27839;SDS011;15207;42.182;24.308;2022-11-30T13:05:55;21.65;;;13.60;;
27839;SDS011;15207;42.182;24.308;2022-11-30T13:11:11;18.33;;;11.50;;
27839;SDS011;15207;42.182;24.308;2022-11-30T13:13:44;24.95;;;14.30;;
27839;SDS011;15207;42.182;24.308;2022-11-30T13:16:16;22.55;;;14.45;;
27839;SDS011;15207;42.182;24.308;2022-11-30T13:18:44;20.20;;;13.60;;
27839;SDS011;15207;42.182;24.308;2022-11-30T13:27:00;25.02;;;14.35;;
27839;SDS011;15207;42.182;24.308;2022-11-30T13:32:32;15.90;;;10.20;;
27839;SDS011;15207;42.182;24.308;2022-11-30T13:40:30;20.50;;;11.60;;
27839;SDS011;15207;42.182;24.308;2022-11-30T13:42:56;16.83;;;11.33;;
27839;SDS011;15207;42.182;24.308;2022-11-30T13:45:24;18.25;;;11.45;;
27839;SDS011;15207;42.182;24.308;2022-11-30T13:47:59;18.85;;;10.60;;
27839;SDS011;15207;42.182;24.308;2022-11-30T13:50:44;18.40;;;12.05;;
27839;SDS011;15207;42.182;24.308;2022-11-30T13:53:19;22.27;;;12.20;;
27839;SDS011;15207;42.182;24.308;2022-11-30T13:58:13;18.40;;;10.80;;
27839;SDS011;15207;42.182;24.308;2022-11-30T14:05:53;15.90;;;10.00;;
27839;SDS011;15207;42.182;24.308;2022-11-30T14:10:47;17.30;;;7.60;;
27839;SDS011;15207;42.182;24.308;2022-11-30T14:20:47;15.70;;;8.15;;
27839;SDS011;15207;42.182;24.308;2022-11-30T14:23:29;15.00;;;9.70;;
27839;SDS011;15207;42.182;24.308;2022-11-30T14:26:11;16.90;;;9.48;;
27839;SDS011;15207;42.182;24.308;2022-11-30T14:29:00;20.23;;;10.32;;
27839;SDS011;15207;42.182;24.308;2022-11-30T14:31:33;18.15;;;9.40;;
27839;SDS011;15207;42.182;24.308;2022-11-30T14:34:08;18.23;;;9.63;;
27839;SDS011;15207;42.182;24.308;2022-11-30T14:36:40;15.25;;;9.55;;
27839;SDS011;15207;42.182;24.308;2022-11-30T14:39:26;17.00;;;10.43;;
27839;SDS011;15207;42.182;24.308;2022-11-30T14:42:00;16.60;;;10.57;;
27839;SDS011;15207;42.182;24.308;2022-11-30T14:44:27;22.70;;;12.10;;
27839;SDS011;15207;42.182;24.308;2022-11-30T14:47:20;21.70;;;12.00;;
27839;SDS011;15207;42.182;24.308;2022-11-30T14:49:56;21.65;;;13.55;;
27839;SDS011;15207;42.182;24.308;2022-11-30T14:55:07;23.80;;;14.00;;
27839;SDS011;15207;42.182;24.308;2022-11-30T15:00:16;29.63;;;15.83;;
27839;SDS011;15207;42.182;24.308;2022-11-30T15:02:44;31.90;;;15.70;;
27839;SDS011;15207;42.182;24.308;2022-11-30T15:05:14;39.45;;;16.60;;
27839;SDS011;15207;42.182;24.308;2022-11-30T15:07:44;35.30;;;16.75;;
27839;SDS011;15207;42.182;24.308;2022-11-30T15:10:17;30.00;;;16.50;;
27839;SDS011;15207;42.182;24.308;2022-11-30T15:12:52;35.30;;;16.90;;
27839;SDS011;15207;42.182;24.308;2022-11-30T15:15:19;37.63;;;15.63;;
27839;SDS011;15207;42.182;24.308;2022-11-30T15:17:49;32.60;;;16.20;;
27839;SDS011;15207;42.182;24.308;2022-11-30T15:22:52;29.43;;;16.40;;
27839;SDS011;15207;42.182;24.308;2022-11-30T15:25:19;28.55;;;16.10;;
27839;SDS011;15207;42.182;24.308;2022-11-30T15:27:47;27.35;;;15.65;;
27839;SDS011;15207;42.182;24.308;2022-11-30T15:30:13;34.70;;;18.65;;
27839;SDS011;15207;42.182;24.308;2022-11-30T15:32:44;34.90;;;20.20;;
27839;SDS011;15207;42.182;24.308;2022-11-30T15:35:20;36.37;;;19.17;;
27839;SDS011;15207;42.182;24.308;2022-11-30T15:37:48;30.10;;;17.40;;
27839;SDS011;15207;42.182;24.308;2022-11-30T15:40:20;31.20;;;17.50;;
27839;SDS011;15207;42.182;24.308;2022-11-30T15:42:54;31.90;;;19.60;;
27839;SDS011;15207;42.182;24.308;2022-11-30T15:47:49;38.20;;;20.10;;
27839;SDS011;15207;42.182;24.308;2022-11-30T15:52:53;31.65;;;18.17;;
27839;SDS011;15207;42.182;24.308;2022-11-30T15:55:40;21.10;;;13.65;;
27839;SDS011;15207;42.182;24.308;2022-11-30T15:58:27;22.20;;;12.20;;
27839;SDS011;15207;42.182;24.308;2022-11-30T16:06:19;19.67;;;12.55;;
27839;SDS011;15207;42.182;24.308;2022-11-30T16:14:16;19.17;;;12.85;;
27839;SDS011;15207;42.182;24.308;2022-11-30T16:16:42;20.10;;;12.10;;
27839;SDS011;15207;42.182;24.308;2022-11-30T16:19:08;18.83;;;12.32;;
27839;SDS011;15207;42.182;24.308;2022-11-30T16:21:34;20.15;;;14.02;;
27839;SDS011;15207;42.182;24.308;2022-11-30T16:24:00;22.25;;;12.75;;
27839;SDS011;15207;42.182;24.308;2022-11-30T16:26:25;23.63;;;14.10;;
27839;SDS011;15207;42.182;24.308;2022-11-30T16:28:51;17.48;;;12.40;;
27839;SDS011;15207;42.182;24.308;2022-11-30T16:31:19;18.40;;;11.90;;
27839;SDS011;15207;42.182;24.308;2022-11-30T16:33:46;19.83;;;13.05;;
27839;SDS011;15207;42.182;24.308;2022-11-30T16:36:14;26.10;;;13.40;;
27839;SDS011;15207;42.182;24.308;2022-11-30T16:38:48;28.35;;;14.65;;
27839;SDS011;15207;42.182;24.308;2022-11-30T16:41:19;20.95;;;13.10;;
27839;SDS011;15207;42.182;24.308;2022-11-30T16:43:47;25.40;;;13.95;;
27839;SDS011;15207;42.182;24.308;2022-11-30T16:46:15;23.70;;;12.30;;
27839;SDS011;15207;42.182;24.308;2022-11-30T16:48:42;20.95;;;12.35;;
27839;SDS011;15207;42.182;24.308;2022-11-30T16:51:41;31.20;;;17.83;;
27839;SDS011;15207;42.182;24.308;2022-11-30T16:54:00;35.00;;;19.45;;
27839;SDS011;15207;42.182;24.308;2022-11-30T16:56:26;24.60;;;16.20;;
27839;SDS011;15207;42.182;24.308;2022-11-30T16:58:51;28.20;;;15.60;;
27839;SDS011;15207;42.182;24.308;2022-11-30T17:01:30;27.85;;;15.77;;
27839;SDS011;15207;42.182;24.308;2022-11-30T17:03:59;27.98;;;16.27;;
27839;SDS011;15207;42.182;24.308;2022-11-30T17:06:38;28.70;;;16.50;;
27839;SDS011;15207;42.182;24.308;2022-11-30T17:09:04;28.83;;;15.93;;
27839;SDS011;15207;42.182;24.308;2022-11-30T17:11:31;23.40;;;14.25;;
27839;SDS011;15207;42.182;24.308;2022-11-30T17:13:58;26.20;;;15.50;;
27839;SDS011;15207;42.182;24.308;2022-11-30T17:16:24;22.83;;;13.37;;
27839;SDS011;15207;42.182;24.308;2022-11-30T17:18:50;19.30;;;10.95;;
27839;SDS011;15207;42.182;24.308;2022-11-30T17:21:18;20.40;;;9.70;;
27839;SDS011;15207;42.182;24.308;2022-11-30T17:23:47;19.40;;;10.50;;
27839;SDS011;15207;42.182;24.308;2022-11-30T17:26:13;22.40;;;9.38;;
27839;SDS011;15207;42.182;24.308;2022-11-30T17:28:38;17.10;;;9.27;;